Terminal Aerodrome Forecast
Issued by NWS Charleston, SC

Home | Current Version | Previous Version | Text Only | Print | Product List | Glossary On
Versions: 1 2 3 4 5 6 7 8 9 10 11 12 13 14 15 16 17 18
000
FTUS42 KCHS 030539
TAFSAV
TAF
KSAV 030539Z 0306/0406 VRB03KT P6SM BKN100
     FM031100 17005KT P6SM VCSH SCT025 BKN050
     FM031700 15009KT P6SM VCTS SCT025 BKN050CB
      TEMPO 0318/0322 VRB10G20KT 3SM TSRA BKN025CB
     FM032200 11004KT P6SM BKN050=

USA.gov is the U.S. government's official web portal to all federal, state and local government web resources and services.